sensor_id;sensor_type;location;lat;lon;timestamp;temperature;humidity
52481;DHT22;38393;52.404;13.532;2023-04-30T00:02:08;8.50;82.20
52481;DHT22;38393;52.404;13.532;2023-04-30T00:04:33;8.40;82.80
52481;DHT22;38393;52.404;13.532;2023-04-30T00:06:59;8.40;82.90
52481;DHT22;38393;52.404;13.532;2023-04-30T00:09:25;8.20;83.70
52481;DHT22;38393;52.404;13.532;2023-04-30T00:11:50;8.20;83.90
52481;DHT22;38393;52.404;13.532;2023-04-30T00:14:16;8.20;83.80
52481;DHT22;38393;52.404;13.532;2023-04-30T00:16:41;8.10;84.50
52481;DHT22;38393;52.404;13.532;2023-04-30T00:19:07;8.10;84.60
52481;DHT22;38393;52.404;13.532;2023-04-30T00:21:33;8.00;85.90
52481;DHT22;38393;52.404;13.532;2023-04-30T00:23:58;7.90;85.40
52481;DHT22;38393;52.404;13.532;2023-04-30T00:26:27;7.70;86.40
52481;DHT22;38393;52.404;13.532;2023-04-30T00:28:52;7.50;87.70
52481;DHT22;38393;52.404;13.532;2023-04-30T00:31:18;7.50;88.40
52481;DHT22;38393;52.404;13.532;2023-04-30T00:33:43;7.50;88.50
52481;DHT22;38393;52.404;13.532;2023-04-30T00:36:08;7.60;88.80
52481;DHT22;38393;52.404;13.532;2023-04-30T00:38:34;7.50;88.50
52481;DHT22;38393;52.404;13.532;2023-04-30T00:40:59;7.40;88.60
52481;DHT22;38393;52.404;13.532;2023-04-30T00:43:25;7.30;90.20
52481;DHT22;38393;52.404;13.532;2023-04-30T00:45:50;7.20;90.40
52481;DHT22;38393;52.404;13.532;2023-04-30T00:48:16;7.40;90.40
52481;DHT22;38393;52.404;13.532;2023-04-30T00:50:43;7.10;90.90
52481;DHT22;38393;52.404;13.532;2023-04-30T00:53:12;6.90;91.30
52481;DHT22;38393;52.404;13.532;2023-04-30T00:55:39;6.70;91.90
52481;DHT22;38393;52.404;13.532;2023-04-30T00:58:06;6.60;92.20
52481;DHT22;38393;52.404;13.532;2023-04-30T01:00:32;6.70;92.40
52481;DHT22;38393;52.404;13.532;2023-04-30T01:02:58;6.60;92.50
52481;DHT22;38393;52.404;13.532;2023-04-30T01:05:24;6.60;92.50
52481;DHT22;38393;52.404;13.532;2023-04-30T01:07:50;6.80;92.00
52481;DHT22;38393;52.404;13.532;2023-04-30T01:10:16;6.80;91.60
52481;DHT22;38393;52.404;13.532;2023-04-30T01:13:08;7.00;91.30
52481;DHT22;38393;52.404;13.532;2023-04-30T01:15:43;7.00;91.30
52481;DHT22;38393;52.404;13.532;2023-04-30T01:18:24;7.10;91.10
52481;DHT22;38393;52.404;13.532;2023-04-30T01:20:54;7.00;90.70
52481;DHT22;38393;52.404;13.532;2023-04-30T01:23:54;7.20;90.30
52481;DHT22;38393;52.404;13.532;2023-04-30T01:29:16;7.30;89.30
52481;DHT22;38393;52.404;13.532;2023-04-30T01:31:43;7.40;88.20
52481;DHT22;38393;52.404;13.532;2023-04-30T01:34:09;7.40;88.60
52481;DHT22;38393;52.404;13.532;2023-04-30T01:37:04;7.30;88.70
52481;DHT22;38393;52.404;13.532;2023-04-30T01:42:58;7.20;88.90
52481;DHT22;38393;52.404;13.532;2023-04-30T01:48:39;7.20;88.20
52481;DHT22;38393;52.404;13.532;2023-04-30T01:51:19;7.10;88.70
52481;DHT22;38393;52.404;13.532;2023-04-30T01:53:48;7.10;88.40
52481;DHT22;38393;52.404;13.532;2023-04-30T01:56:38;7.00;88.70
52481;DHT22;38393;52.404;13.532;2023-04-30T01:59:05;7.00;88.90
52481;DHT22;38393;52.404;13.532;2023-04-30T02:01:31;7.10;87.80
52481;DHT22;38393;52.404;13.532;2023-04-30T02:03:58;7.30;87.00
52481;DHT22;38393;52.404;13.532;2023-04-30T02:06:24;7.10;86.70
52481;DHT22;38393;52.404;13.532;2023-04-30T02:08:54;7.20;87.00
52481;DHT22;38393;52.404;13.532;2023-04-30T02:11:21;7.20;87.00
52481;DHT22;38393;52.404;13.532;2023-04-30T02:13:49;7.10;87.10
52481;DHT22;38393;52.404;13.532;2023-04-30T02:16:14;7.00;87.70
52481;DHT22;38393;52.404;13.532;2023-04-30T02:18:40;6.90;88.40
52481;DHT22;38393;52.404;13.532;2023-04-30T02:21:05;7.00;89.00
52481;DHT22;38393;52.404;13.532;2023-04-30T02:23:31;7.00;89.10
52481;DHT22;38393;52.404;13.532;2023-04-30T02:25:56;6.90;89.20
52481;DHT22;38393;52.404;13.532;2023-04-30T02:28:21;6.90;89.50
52481;DHT22;38393;52.404;13.532;2023-04-30T02:30:47;6.90;89.80
52481;DHT22;38393;52.404;13.532;2023-04-30T02:33:12;7.00;89.80
52481;DHT22;38393;52.404;13.532;2023-04-30T02:35:39;6.80;90.00
52481;DHT22;38393;52.404;13.532;2023-04-30T02:38:05;6.70;90.30
52481;DHT22;38393;52.404;13.532;2023-04-30T02:40:31;6.80;90.40
52481;DHT22;38393;52.404;13.532;2023-04-30T02:42:56;6.80;90.50
52481;DHT22;38393;52.404;13.532;2023-04-30T02:45:22;6.70;90.60
52481;DHT22;38393;52.404;13.532;2023-04-30T02:47:47;6.90;90.70
52481;DHT22;38393;52.404;13.532;2023-04-30T02:50:13;6.70;90.80
52481;DHT22;38393;52.404;13.532;2023-04-30T02:52:39;6.60;91.00
52481;DHT22;38393;52.404;13.532;2023-04-30T02:55:04;6.60;91.10
52481;DHT22;38393;52.404;13.532;2023-04-30T02:57:30;6.50;91.30
52481;DHT22;38393;52.404;13.532;2023-04-30T02:59:55;6.50;91.40
52481;DHT22;38393;52.404;13.532;2023-04-30T03:02:21;6.60;91.80
52481;DHT22;38393;52.404;13.532;2023-04-30T03:04:48;6.50;91.50
52481;DHT22;38393;52.404;13.532;2023-04-30T03:07:13;6.50;91.60
52481;DHT22;38393;52.404;13.532;2023-04-30T03:09:39;6.50;91.60
52481;DHT22;38393;52.404;13.532;2023-04-30T03:12:04;6.50;91.50
52481;DHT22;38393;52.404;13.532;2023-04-30T03:14:30;6.60;91.50
52481;DHT22;38393;52.404;13.532;2023-04-30T03:16:55;6.50;91.40
52481;DHT22;38393;52.404;13.532;2023-04-30T03:19:21;6.40;91.40
52481;DHT22;38393;52.404;13.532;2023-04-30T03:21:53;6.40;91.70
52481;DHT22;38393;52.404;13.532;2023-04-30T03:24:18;6.40;91.80
52481;DHT22;38393;52.404;13.532;2023-04-30T03:26:44;6.30;92.00
52481;DHT22;38393;52.404;13.532;2023-04-30T03:29:10;6.30;92.10
52481;DHT22;38393;52.404;13.532;2023-04-30T03:31:35;6.20;92.00
52481;DHT22;38393;52.404;13.532;2023-04-30T03:34:01;6.30;91.90
52481;DHT22;38393;52.404;13.532;2023-04-30T03:36:26;6.30;92.20
52481;DHT22;38393;52.404;13.532;2023-04-30T03:38:52;6.30;92.00
52481;DHT22;38393;52.404;13.532;2023-04-30T03:41:18;6.20;92.00
52481;DHT22;38393;52.404;13.532;2023-04-30T03:43:43;6.30;92.10
52481;DHT22;38393;52.404;13.532;2023-04-30T03:46:09;6.40;91.90
52481;DHT22;38393;52.404;13.532;2023-04-30T03:48:34;6.30;92.00
52481;DHT22;38393;52.404;13.532;2023-04-30T03:51:00;6.30;92.10
52481;DHT22;38393;52.404;13.532;2023-04-30T03:53:25;6.30;92.10
52481;DHT22;38393;52.404;13.532;2023-04-30T03:55:51;6.30;92.10
52481;DHT22;38393;52.404;13.532;2023-04-30T03:58:17;6.30;92.20
52481;DHT22;38393;52.404;13.532;2023-04-30T04:00:43;6.30;92.10
52481;DHT22;38393;52.404;13.532;2023-04-30T04:03:10;6.30;91.90
52481;DHT22;38393;52.404;13.532;2023-04-30T04:05:36;6.30;91.80
52481;DHT22;38393;52.404;13.532;2023-04-30T04:08:01;6.30;91.70
52481;DHT22;38393;52.404;13.532;2023-04-30T04:10:27;6.20;91.90
52481;DHT22;38393;52.404;13.532;2023-04-30T04:12:52;6.30;91.70
52481;DHT22;38393;52.404;13.532;2023-04-30T04:15:18;6.40;91.60
52481;DHT22;38393;52.404;13.532;2023-04-30T04:17:43;6.30;91.70
52481;DHT22;38393;52.404;13.532;2023-04-30T04:20:09;6.40;91.60
52481;DHT22;38393;52.404;13.532;2023-04-30T04:22:35;6.40;91.30
52481;DHT22;38393;52.404;13.532;2023-04-30T04:25:00;6.50;91.20
52481;DHT22;38393;52.404;13.532;2023-04-30T04:27:26;6.60;90.90
52481;DHT22;38393;52.404;13.532;2023-04-30T04:29:52;6.70;90.60
52481;DHT22;38393;52.404;13.532;2023-04-30T04:32:19;6.70;90.50
52481;DHT22;38393;52.404;13.532;2023-04-30T04:34:44;6.80;90.40
52481;DHT22;38393;52.404;13.532;2023-04-30T04:37:10;6.80;90.20
52481;DHT22;38393;52.404;13.532;2023-04-30T04:39:35;6.80;90.10
52481;DHT22;38393;52.404;13.532;2023-04-30T04:42:03;6.80;90.10
52481;DHT22;38393;52.404;13.532;2023-04-30T04:44:29;6.80;90.10
52481;DHT22;38393;52.404;13.532;2023-04-30T04:46:54;6.80;90.00
52481;DHT22;38393;52.404;13.532;2023-04-30T04:49:20;6.90;89.80
52481;DHT22;38393;52.404;13.532;2023-04-30T04:51:46;6.90;90.00
52481;DHT22;38393;52.404;13.532;2023-04-30T04:54:11;6.90;90.00
52481;DHT22;38393;52.404;13.532;2023-04-30T04:56:37;6.90;89.80
52481;DHT22;38393;52.404;13.532;2023-04-30T04:59:02;7.00;89.70
52481;DHT22;38393;52.404;13.532;2023-04-30T05:01:28;7.00;89.80
52481;DHT22;38393;52.404;13.532;2023-04-30T05:03:53;6.90;89.60
52481;DHT22;38393;52.404;13.532;2023-04-30T05:06:19;7.10;89.60
52481;DHT22;38393;52.404;13.532;2023-04-30T05:08:45;7.10;88.50
52481;DHT22;38393;52.404;13.532;2023-04-30T05:11:10;7.10;88.00
52481;DHT22;38393;52.404;13.532;2023-04-30T05:13:36;7.10;88.30
52481;DHT22;38393;52.404;13.532;2023-04-30T05:16:02;7.20;88.00
52481;DHT22;38393;52.404;13.532;2023-04-30T05:18:27;7.20;88.10
52481;DHT22;38393;52.404;13.532;2023-04-30T05:20:53;7.30;87.70
52481;DHT22;38393;52.404;13.532;2023-04-30T05:23:18;7.30;87.80
52481;DHT22;38393;52.404;13.532;2023-04-30T05:25:44;7.20;87.40
52481;DHT22;38393;52.404;13.532;2023-04-30T05:28:10;7.30;87.10
52481;DHT22;38393;52.404;13.532;2023-04-30T05:30:35;7.30;86.90
52481;DHT22;38393;52.404;13.532;2023-04-30T05:33:01;7.30;87.10
52481;DHT22;38393;52.404;13.532;2023-04-30T05:35:26;7.30;87.10
52481;DHT22;38393;52.404;13.532;2023-04-30T05:37:52;7.40;86.60
52481;DHT22;38393;52.404;13.532;2023-04-30T05:40:18;7.40;86.20
52481;DHT22;38393;52.404;13.532;2023-04-30T05:42:43;7.50;86.50
52481;DHT22;38393;52.404;13.532;2023-04-30T05:45:09;7.50;86.50
52481;DHT22;38393;52.404;13.532;2023-04-30T05:47:36;7.60;86.00
52481;DHT22;38393;52.404;13.532;2023-04-30T05:50:02;7.70;85.70
52481;DHT22;38393;52.404;13.532;2023-04-30T05:52:27;7.90;84.90
52481;DHT22;38393;52.404;13.532;2023-04-30T05:54:53;7.80;83.90
52481;DHT22;38393;52.404;13.532;2023-04-30T05:57:18;8.00;83.50
52481;DHT22;38393;52.404;13.532;2023-04-30T05:59:44;8.00;83.00
52481;DHT22;38393;52.404;13.532;2023-04-30T06:02:09;8.00;82.20
52481;DHT22;38393;52.404;13.532;2023-04-30T06:04:35;8.00;82.50
52481;DHT22;38393;52.404;13.532;2023-04-30T06:07:00;8.10;82.10
52481;DHT22;38393;52.404;13.532;2023-04-30T06:09:26;8.30;80.30
52481;DHT22;38393;52.404;13.532;2023-04-30T06:11:52;8.10;80.40
52481;DHT22;38393;52.404;13.532;2023-04-30T06:14:18;8.20;81.20
52481;DHT22;38393;52.404;13.532;2023-04-30T06:16:44;8.30;80.50
52481;DHT22;38393;52.404;13.532;2023-04-30T06:19:10;8.50;79.40
52481;DHT22;38393;52.404;13.532;2023-04-30T06:21:36;8.50;79.70
52481;DHT22;38393;52.404;13.532;2023-04-30T06:24:02;8.60;79.80
52481;DHT22;38393;52.404;13.532;2023-04-30T06:26:27;8.80;79.20
52481;DHT22;38393;52.404;13.532;2023-04-30T06:28:53;9.00;77.30
52481;DHT22;38393;52.404;13.532;2023-04-30T06:31:18;9.00;77.10
52481;DHT22;38393;52.404;13.532;2023-04-30T06:33:44;9.20;77.40
52481;DHT22;38393;52.404;13.532;2023-04-30T06:36:09;9.20;73.50
52481;DHT22;38393;52.404;13.532;2023-04-30T06:38:35;9.30;73.50
52481;DHT22;38393;52.404;13.532;2023-04-30T06:41:00;9.40;73.20
52481;DHT22;38393;52.404;13.532;2023-04-30T06:43:26;9.40;73.00
52481;DHT22;38393;52.404;13.532;2023-04-30T06:45:51;9.40;71.90
52481;DHT22;38393;52.404;13.532;2023-04-30T06:48:17;9.30;73.00
52481;DHT22;38393;52.404;13.532;2023-04-30T06:50:42;9.50;72.50
52481;DHT22;38393;52.404;13.532;2023-04-30T06:53:11;9.40;70.70
52481;DHT22;38393;52.404;13.532;2023-04-30T06:55:37;9.30;70.80
52481;DHT22;38393;52.404;13.532;2023-04-30T06:58:02;9.40;71.30
52481;DHT22;38393;52.404;13.532;2023-04-30T07:00:30;9.40;69.50
52481;DHT22;38393;52.404;13.532;2023-04-30T07:02:55;9.40;70.50
52481;DHT22;38393;52.404;13.532;2023-04-30T07:05:21;9.50;71.00
52481;DHT22;38393;52.404;13.532;2023-04-30T07:07:46;9.60;71.50
52481;DHT22;38393;52.404;13.532;2023-04-30T07:10:13;9.50;71.80
52481;DHT22;38393;52.404;13.532;2023-04-30T07:12:38;9.60;70.40
52481;DHT22;38393;52.404;13.532;2023-04-30T07:15:04;9.50;70.80
52481;DHT22;38393;52.404;13.532;2023-04-30T07:17:30;9.50;72.00
52481;DHT22;38393;52.404;13.532;2023-04-30T07:19:55;9.80;70.20
52481;DHT22;38393;52.404;13.532;2023-04-30T07:22:21;9.80;69.20
52481;DHT22;38393;52.404;13.532;2023-04-30T07:24:46;9.80;68.40
52481;DHT22;38393;52.404;13.532;2023-04-30T07:27:12;9.80;68.40
52481;DHT22;38393;52.404;13.532;2023-04-30T07:29:37;9.80;70.20
52481;DHT22;38393;52.404;13.532;2023-04-30T07:32:03;9.90;69.10
52481;DHT22;38393;52.404;13.532;2023-04-30T07:34:29;9.80;69.40
52481;DHT22;38393;52.404;13.532;2023-04-30T07:36:54;9.50;69.80
52481;DHT22;38393;52.404;13.532;2023-04-30T07:39:20;9.70;69.40
52481;DHT22;38393;52.404;13.532;2023-04-30T07:41:45;9.80;69.80
52481;DHT22;38393;52.404;13.532;2023-04-30T07:44:11;9.90;68.30
52481;DHT22;38393;52.404;13.532;2023-04-30T07:46:36;10.20;65.90
52481;DHT22;38393;52.404;13.532;2023-04-30T07:49:02;9.80;66.80
52481;DHT22;38393;52.404;13.532;2023-04-30T07:51:28;10.00;66.80
52481;DHT22;38393;52.404;13.532;2023-04-30T07:53:54;10.20;67.70
52481;DHT22;38393;52.404;13.532;2023-04-30T07:56:19;10.40;66.20
52481;DHT22;38393;52.404;13.532;2023-04-30T07:58:46;10.40;65.20
52481;DHT22;38393;52.404;13.532;2023-04-30T08:01:11;10.30;65.50
52481;DHT22;38393;52.404;13.532;2023-04-30T08:03:36;10.10;64.10
52481;DHT22;38393;52.404;13.532;2023-04-30T08:06:03;10.10;65.70
52481;DHT22;38393;52.404;13.532;2023-04-30T08:08:29;10.40;66.30
52481;DHT22;38393;52.404;13.532;2023-04-30T08:10:54;10.60;63.60
52481;DHT22;38393;52.404;13.532;2023-04-30T08:13:20;10.70;61.00
52481;DHT22;38393;52.404;13.532;2023-04-30T08:15:45;10.60;61.90
52481;DHT22;38393;52.404;13.532;2023-04-30T08:18:10;10.50;62.00
52481;DHT22;38393;52.404;13.532;2023-04-30T08:20:36;10.40;59.40
52481;DHT22;38393;52.404;13.532;2023-04-30T08:23:01;10.60;59.90
52481;DHT22;38393;52.404;13.532;2023-04-30T08:25:27;10.90;58.30
52481;DHT22;38393;52.404;13.532;2023-04-30T08:27:52;10.80;58.80
52481;DHT22;38393;52.404;13.532;2023-04-30T08:30:18;10.70;59.30
52481;DHT22;38393;52.404;13.532;2023-04-30T08:32:44;10.80;57.90
52481;DHT22;38393;52.404;13.532;2023-04-30T08:35:10;10.80;59.30
52481;DHT22;38393;52.404;13.532;2023-04-30T08:37:35;10.80;59.70
52481;DHT22;38393;52.404;13.532;2023-04-30T08:40:01;10.60;61.10
52481;DHT22;38393;52.404;13.532;2023-04-30T08:42:30;10.70;61.00
52481;DHT22;38393;52.404;13.532;2023-04-30T08:44:59;10.80;59.70
52481;DHT22;38393;52.404;13.532;2023-04-30T08:47:26;10.70;60.50
52481;DHT22;38393;52.404;13.532;2023-04-30T08:49:52;10.80;61.80
52481;DHT22;38393;52.404;13.532;2023-04-30T08:52:18;11.00;58.80
52481;DHT22;38393;52.404;13.532;2023-04-30T08:54:44;11.00;60.70
52481;DHT22;38393;52.404;13.532;2023-04-30T08:57:10;11.00;58.90
52481;DHT22;38393;52.404;13.532;2023-04-30T08:59:36;11.20;59.50
52481;DHT22;38393;52.404;13.532;2023-04-30T09:02:01;11.40;57.60
52481;DHT22;38393;52.404;13.532;2023-04-30T09:04:27;11.50;56.60
52481;DHT22;38393;52.404;13.532;2023-04-30T09:06:53;11.20;57.10
52481;DHT22;38393;52.404;13.532;2023-04-30T09:09:27;11.10;57.60
52481;DHT22;38393;52.404;13.532;2023-04-30T09:11:53;11.20;58.50
52481;DHT22;38393;52.404;13.532;2023-04-30T09:14:23;11.40;58.10
52481;DHT22;38393;52.404;13.532;2023-04-30T09:16:51;11.30;58.60
52481;DHT22;38393;52.404;13.532;2023-04-30T09:19:28;11.60;57.10
52481;DHT22;38393;52.404;13.532;2023-04-30T09:21:54;11.40;55.30
52481;DHT22;38393;52.404;13.532;2023-04-30T09:24:19;11.30;55.70
52481;DHT22;38393;52.404;13.532;2023-04-30T09:26:45;11.50;57.10
52481;DHT22;38393;52.404;13.532;2023-04-30T09:29:11;11.60;58.40
52481;DHT22;38393;52.404;13.532;2023-04-30T09:31:38;11.70;54.20
52481;DHT22;38393;52.404;13.532;2023-04-30T09:34:04;11.60;55.80
52481;DHT22;38393;52.404;13.532;2023-04-30T09:36:30;11.40;52.80
52481;DHT22;38393;52.404;13.532;2023-04-30T09:39:08;11.40;53.60
52481;DHT22;38393;52.404;13.532;2023-04-30T09:41:36;11.80;54.20
52481;DHT22;38393;52.404;13.532;2023-04-30T09:44:01;12.00;50.00
52481;DHT22;38393;52.404;13.532;2023-04-30T09:46:32;11.60;51.20
52481;DHT22;38393;52.404;13.532;2023-04-30T09:48:59;11.70;50.40
52481;DHT22;38393;52.404;13.532;2023-04-30T09:51:25;11.70;49.30
52481;DHT22;38393;52.404;13.532;2023-04-30T09:53:51;11.50;49.50
52481;DHT22;38393;52.404;13.532;2023-04-30T09:56:22;11.70;48.50
52481;DHT22;38393;52.404;13.532;2023-04-30T09:58:52;11.70;48.50
52481;DHT22;38393;52.404;13.532;2023-04-30T10:01:19;11.70;48.10
52481;DHT22;38393;52.404;13.532;2023-04-30T10:03:46;11.90;46.50
52481;DHT22;38393;52.404;13.532;2023-04-30T10:06:13;11.90;46.30
52481;DHT22;38393;52.404;13.532;2023-04-30T10:08:42;11.70;45.20
52481;DHT22;38393;52.404;13.532;2023-04-30T10:11:09;11.60;44.20
52481;DHT22;38393;52.404;13.532;2023-04-30T10:13:50;11.70;43.90
52481;DHT22;38393;52.404;13.532;2023-04-30T10:16:50;11.80;45.20
52481;DHT22;38393;52.404;13.532;2023-04-30T10:19:30;11.80;45.70
52481;DHT22;38393;52.404;13.532;2023-04-30T10:21:56;12.10;45.70
52481;DHT22;38393;52.404;13.532;2023-04-30T10:24:22;12.30;44.90
52481;DHT22;38393;52.404;13.532;2023-04-30T10:26:48;12.30;45.40
52481;DHT22;38393;52.404;13.532;2023-04-30T10:29:15;12.20;46.10
52481;DHT22;38393;52.404;13.532;2023-04-30T10:31:44;12.30;47.60
52481;DHT22;38393;52.404;13.532;2023-04-30T10:36:45;12.20;45.70
52481;DHT22;38393;52.404;13.532;2023-04-30T10:39:17;12.00;44.20
52481;DHT22;38393;52.404;13.532;2023-04-30T10:41:46;12.10;43.30
52481;DHT22;38393;52.404;13.532;2023-04-30T10:44:13;12.10;45.40
52481;DHT22;38393;52.404;13.532;2023-04-30T10:46:39;12.60;45.40
52481;DHT22;38393;52.404;13.532;2023-04-30T10:49:04;12.50;44.60
52481;DHT22;38393;52.404;13.532;2023-04-30T10:51:50;12.50;43.40
52481;DHT22;38393;52.404;13.532;2023-04-30T10:54:27;12.60;42.00
52481;DHT22;38393;52.404;13.532;2023-04-30T10:56:58;12.20;40.90
52481;DHT22;38393;52.404;13.532;2023-04-30T10:59:33;12.50;41.30
52481;DHT22;38393;52.404;13.532;2023-04-30T11:01:59;12.50;41.40
52481;DHT22;38393;52.404;13.532;2023-04-30T11:04:26;12.50;40.40
52481;DHT22;38393;52.404;13.532;2023-04-30T11:09:18;12.50;42.30
52481;DHT22;38393;52.404;13.532;2023-04-30T11:11:44;12.70;42.30
52481;DHT22;38393;52.404;13.532;2023-04-30T11:14:11;12.80;43.70
52481;DHT22;38393;52.404;13.532;2023-04-30T11:16:36;12.80;41.30
52481;DHT22;38393;52.404;13.532;2023-04-30T11:19:09;12.70;44.20
52481;DHT22;38393;52.404;13.532;2023-04-30T11:27:31;13.10;43.00
52481;DHT22;38393;52.404;13.532;2023-04-30T11:29:57;12.90;42.10
52481;DHT22;38393;52.404;13.532;2023-04-30T11:32:25;13.00;42.80
52481;DHT22;38393;52.404;13.532;2023-04-30T11:34:51;13.00;42.40
52481;DHT22;38393;52.404;13.532;2023-04-30T11:37:29;13.30;43.50
52481;DHT22;38393;52.404;13.532;2023-04-30T11:39:57;13.00;44.00
52481;DHT22;38393;52.404;13.532;2023-04-30T11:42:24;13.20;45.40
52481;DHT22;38393;52.404;13.532;2023-04-30T11:44:49;13.10;44.10
52481;DHT22;38393;52.404;13.532;2023-04-30T11:47:15;13.20;43.20
52481;DHT22;38393;52.404;13.532;2023-04-30T11:49:42;13.30;44.00
52481;DHT22;38393;52.404;13.532;2023-04-30T11:52:07;13.10;42.80
52481;DHT22;38393;52.404;13.532;2023-04-30T11:54:37;13.30;42.60
52481;DHT22;38393;52.404;13.532;2023-04-30T11:57:02;13.30;41.80
52481;DHT22;38393;52.404;13.532;2023-04-30T11:59:29;13.40;43.60
52481;DHT22;38393;52.404;13.532;2023-04-30T12:01:55;13.60;42.50
52481;DHT22;38393;52.404;13.532;2023-04-30T12:04:21;13.60;43.90
52481;DHT22;38393;52.404;13.532;2023-04-30T12:06:47;13.90;43.30
52481;DHT22;38393;52.404;13.532;2023-04-30T12:09:12;13.70;42.60
52481;DHT22;38393;52.404;13.532;2023-04-30T12:11:38;13.40;42.70
52481;DHT22;38393;52.404;13.532;2023-04-30T12:14:06;13.30;41.90
52481;DHT22;38393;52.404;13.532;2023-04-30T12:16:49;13.30;42.80
52481;DHT22;38393;52.404;13.532;2023-04-30T12:19:15;13.40;42.30
52481;DHT22;38393;52.404;13.532;2023-04-30T12:21:42;13.60;42.40
52481;DHT22;38393;52.404;13.532;2023-04-30T12:24:17;13.60;41.40
52481;DHT22;38393;52.404;13.532;2023-04-30T12:26:43;13.50;42.30
52481;DHT22;38393;52.404;13.532;2023-04-30T12:29:14;13.60;45.00
52481;DHT22;38393;52.404;13.532;2023-04-30T12:31:40;13.70;39.60
52481;DHT22;38393;52.404;13.532;2023-04-30T12:34:07;13.80;39.50
52481;DHT22;38393;52.404;13.532;2023-04-30T12:36:34;13.90;40.00
52481;DHT22;38393;52.404;13.532;2023-04-30T12:39:02;13.70;38.40
52481;DHT22;38393;52.404;13.532;2023-04-30T12:41:29;13.50;40.00
52481;DHT22;38393;52.404;13.532;2023-04-30T12:44:23;13.60;40.60
52481;DHT22;38393;52.404;13.532;2023-04-30T12:46:50;13.90;40.80
52481;DHT22;38393;52.404;13.532;2023-04-30T12:51:50;13.80;42.90
52481;DHT22;38393;52.404;13.532;2023-04-30T12:54:24;14.00;41.40
52481;DHT22;38393;52.404;13.532;2023-04-30T12:57:08;14.00;42.60
52481;DHT22;38393;52.404;13.532;2023-04-30T12:59:37;14.20;39.50
52481;DHT22;38393;52.404;13.532;2023-04-30T13:02:10;14.30;39.90
52481;DHT22;38393;52.404;13.532;2023-04-30T13:04:37;14.20;38.10
52481;DHT22;38393;52.404;13.532;2023-04-30T13:07:03;14.00;37.60
52481;DHT22;38393;52.404;13.532;2023-04-30T13:09:29;13.90;38.30
52481;DHT22;38393;52.404;13.532;2023-04-30T13:11:55;13.90;38.30
52481;DHT22;38393;52.404;13.532;2023-04-30T13:14:20;14.20;41.00
52481;DHT22;38393;52.404;13.532;2023-04-30T13:16:46;14.50;41.10
52481;DHT22;38393;52.404;13.532;2023-04-30T13:19:12;14.40;39.30
52481;DHT22;38393;52.404;13.532;2023-04-30T13:21:37;14.40;38.80
52481;DHT22;38393;52.404;13.532;2023-04-30T13:24:03;14.10;39.80
52481;DHT22;38393;52.404;13.532;2023-04-30T13:26:29;14.20;40.70
52481;DHT22;38393;52.404;13.532;2023-04-30T13:28:54;14.40;40.10
52481;DHT22;38393;52.404;13.532;2023-04-30T13:31:20;14.40;39.10
52481;DHT22;38393;52.404;13.532;2023-04-30T13:33:46;14.30;38.10
52481;DHT22;38393;52.404;13.532;2023-04-30T13:36:12;14.00;40.20
52481;DHT22;38393;52.404;13.532;2023-04-30T13:38:37;14.40;39.50
52481;DHT22;38393;52.404;13.532;2023-04-30T13:41:04;14.30;41.00
52481;DHT22;38393;52.404;13.532;2023-04-30T13:43:30;14.50;43.10
52481;DHT22;38393;52.404;13.532;2023-04-30T13:45:56;14.80;43.10
52481;DHT22;38393;52.404;13.532;2023-04-30T13:48:23;14.80;40.60
52481;DHT22;38393;52.404;13.532;2023-04-30T13:50:49;15.00;40.50
52481;DHT22;38393;52.404;13.532;2023-04-30T13:53:14;15.00;39.80
52481;DHT22;38393;52.404;13.532;2023-04-30T13:55:40;15.10;39.40
52481;DHT22;38393;52.404;13.532;2023-04-30T13:58:05;14.80;39.40
52481;DHT22;38393;52.404;13.532;2023-04-30T14:00:31;14.70;40.90
52481;DHT22;38393;52.404;13.532;2023-04-30T14:02:56;14.50;42.00
52481;DHT22;38393;52.404;13.532;2023-04-30T14:05:22;14.80;41.80
52481;DHT22;38393;52.404;13.532;2023-04-30T14:07:48;14.80;39.40
52481;DHT22;38393;52.404;13.532;2023-04-30T14:10:13;14.70;39.40
52481;DHT22;38393;52.404;13.532;2023-04-30T14:12:38;14.80;39.90
52481;DHT22;38393;52.404;13.532;2023-04-30T14:15:05;14.60;40.70
52481;DHT22;38393;52.404;13.532;2023-04-30T14:17:30;14.80;40.10
52481;DHT22;38393;52.404;13.532;2023-04-30T14:19:56;14.60;41.20
52481;DHT22;38393;52.404;13.532;2023-04-30T14:22:21;14.80;41.30
52481;DHT22;38393;52.404;13.532;2023-04-30T14:24:48;14.90;42.10
52481;DHT22;38393;52.404;13.532;2023-04-30T14:27:14;15.00;39.80
52481;DHT22;38393;52.404;13.532;2023-04-30T14:29:40;15.30;41.50
52481;DHT22;38393;52.404;13.532;2023-04-30T14:32:06;15.30;42.50
52481;DHT22;38393;52.404;13.532;2023-04-30T14:34:32;15.40;41.30
52481;DHT22;38393;52.404;13.532;2023-04-30T14:36:57;15.40;39.90
52481;DHT22;38393;52.404;13.532;2023-04-30T14:39:24;15.20;41.10
52481;DHT22;38393;52.404;13.532;2023-04-30T14:41:50;15.20;39.70
52481;DHT22;38393;52.404;13.532;2023-04-30T14:44:15;15.30;40.20
52481;DHT22;38393;52.404;13.532;2023-04-30T14:46:40;15.40;40.10
52481;DHT22;38393;52.404;13.532;2023-04-30T14:49:06;15.30;39.70
52481;DHT22;38393;52.404;13.532;2023-04-30T14:51:32;15.30;41.80
52481;DHT22;38393;52.404;13.532;2023-04-30T14:53:57;15.10;40.60
52481;DHT22;38393;52.404;13.532;2023-04-30T14:56:23;15.30;41.90
52481;DHT22;38393;52.404;13.532;2023-04-30T14:58:49;15.30;40.10
52481;DHT22;38393;52.404;13.532;2023-04-30T15:01:16;15.20;41.30
52481;DHT22;38393;52.404;13.532;2023-04-30T15:03:41;15.00;43.20
52481;DHT22;38393;52.404;13.532;2023-04-30T15:06:07;15.00;40.30
52481;DHT22;38393;52.404;13.532;2023-04-30T15:08:33;15.10;40.30
52481;DHT22;38393;52.404;13.532;2023-04-30T15:10:59;15.00;40.70
52481;DHT22;38393;52.404;13.532;2023-04-30T15:13:25;15.10;41.40
52481;DHT22;38393;52.404;13.532;2023-04-30T15:15:50;15.40;42.10
52481;DHT22;38393;52.404;13.532;2023-04-30T15:18:16;15.50;40.80
52481;DHT22;38393;52.404;13.532;2023-04-30T15:20:41;15.60;41.00
52481;DHT22;38393;52.404;13.532;2023-04-30T15:23:07;15.30;40.90
52481;DHT22;38393;52.404;13.532;2023-04-30T15:25:32;15.30;43.90
52481;DHT22;38393;52.404;13.532;2023-04-30T15:27:59;15.40;44.00
52481;DHT22;38393;52.404;13.532;2023-04-30T15:30:24;15.30;42.90
52481;DHT22;38393;52.404;13.532;2023-04-30T15:32:50;15.40;41.20
52481;DHT22;38393;52.404;13.532;2023-04-30T15:35:15;15.50;42.10
52481;DHT22;38393;52.404;13.532;2023-04-30T15:37:41;15.30;40.30
52481;DHT22;38393;52.404;13.532;2023-04-30T15:40:07;15.40;43.90
52481;DHT22;38393;52.404;13.532;2023-04-30T15:42:35;15.50;43.00
52481;DHT22;38393;52.404;13.532;2023-04-30T15:45:02;15.60;41.60